sensor_id;sensor_type;location;lat;lon;timestamp;pressure;altitude;pressure_sealevel;temperature;humidity
55590;BME280;41452;42.780;23.116;2023-03-15T00:00:53;93412.06;;;2.61;79.27
55590;BME280;41452;42.780;23.116;2023-03-15T00:03:19;93402.91;;;2.45;80.04
55590;BME280;41452;42.780;23.116;2023-03-15T00:05:46;93410.50;;;2.40;81.12
55590;BME280;41452;42.780;23.116;2023-03-15T00:08:13;93404.09;;;2.50;81.08
55590;BME280;41452;42.780;23.116;2023-03-15T00:10:43;93407.31;;;2.38;82.13
55590;BME280;41452;42.780;23.116;2023-03-15T00:13:11;93408.91;;;2.39;82.83
55590;BME280;41452;42.780;23.116;2023-03-15T00:15:47;93394.38;;;2.38;82.41
55590;BME280;41452;42.780;23.116;2023-03-15T00:18:13;93335.44;;;2.07;83.05
55590;BME280;41452;42.780;23.116;2023-03-15T00:20:39;93409.84;;;2.58;82.12
55590;BME280;41452;42.780;23.116;2023-03-15T00:23:04;93404.47;;;2.66;81.05
55590;BME280;41452;42.780;23.116;2023-03-15T00:25:30;93407.47;;;2.57;81.29
55590;BME280;41452;42.780;23.116;2023-03-15T00:27:55;93364.91;;;2.26;82.32
55590;BME280;41452;42.780;23.116;2023-03-15T00:30:21;93403.06;;;2.64;81.86
55590;BME280;41452;42.780;23.116;2023-03-15T00:32:46;93406.44;;;2.64;82.46
55590;BME280;41452;42.780;23.116;2023-03-15T00:35:12;93344.34;;;2.31;82.79
55590;BME280;41452;42.780;23.116;2023-03-15T00:37:37;93391.91;;;2.63;82.03
55590;BME280;41452;42.780;23.116;2023-03-15T00:40:04;93376.47;;;2.75;82.10
55590;BME280;41452;42.780;23.116;2023-03-15T00:42:31;93378.47;;;2.80;81.68
55590;BME280;41452;42.780;23.116;2023-03-15T00:44:58;93364.56;;;2.67;82.12
55590;BME280;41452;42.780;23.116;2023-03-15T00:47:23;93366.94;;;2.76;82.28
55590;BME280;41452;42.780;23.116;2023-03-15T00:49:49;93351.97;;;2.78;81.90
55590;BME280;41452;42.780;23.116;2023-03-15T00:52:15;93356.31;;;2.84;82.95
55590;BME280;41452;42.780;23.116;2023-03-15T00:54:41;93361.09;;;2.87;83.01
55590;BME280;41452;42.780;23.116;2023-03-15T00:57:07;93359.06;;;2.89;83.00
55590;BME280;41452;42.780;23.116;2023-03-15T00:59:33;93357.50;;;2.88;83.17
55590;BME280;41452;42.780;23.116;2023-03-15T01:02:03;93366.84;;;2.89;83.39
55590;BME280;41452;42.780;23.116;2023-03-15T01:04:29;93357.50;;;2.88;83.60
55590;BME280;41452;42.780;23.116;2023-03-15T01:06:56;93356.47;;;2.89;84.14
55590;BME280;41452;42.780;23.116;2023-03-15T01:09:21;93348.50;;;2.91;82.44
55590;BME280;41452;42.780;23.116;2023-03-15T01:11:47;93349.94;;;2.87;82.85
55590;BME280;41452;42.780;23.116;2023-03-15T01:14:12;93352.34;;;2.81;83.81
55590;BME280;41452;42.780;23.116;2023-03-15T01:16:37;93332.19;;;2.77;83.66
55590;BME280;41452;42.780;23.116;2023-03-15T01:19:03;93332.56;;;2.87;83.80
55590;BME280;41452;42.780;23.116;2023-03-15T01:21:28;93322.78;;;2.89;84.02
55590;BME280;41452;42.780;23.116;2023-03-15T01:23:54;93331.75;;;2.93;83.49
55590;BME280;41452;42.780;23.116;2023-03-15T01:26:19;93324.03;;;2.73;84.00
55590;BME280;41452;42.780;23.116;2023-03-15T01:28:45;93327.78;;;2.84;83.74
55590;BME280;41452;42.780;23.116;2023-03-15T01:31:20;93319.78;;;2.92;81.94
55590;BME280;41452;42.780;23.116;2023-03-15T01:33:46;93325.94;;;2.91;82.48
55590;BME280;41452;42.780;23.116;2023-03-15T01:36:12;93324.59;;;2.82;82.80
55590;BME280;41452;42.780;23.116;2023-03-15T01:38:38;93322.78;;;2.82;83.29
55590;BME280;41452;42.780;23.116;2023-03-15T01:41:04;93301.53;;;2.74;83.57
55590;BME280;41452;42.780;23.116;2023-03-15T01:43:30;93307.69;;;2.79;84.18
55590;BME280;41452;42.780;23.116;2023-03-15T01:46:03;93298.69;;;2.75;82.47
55590;BME280;41452;42.780;23.116;2023-03-15T01:48:49;93303.66;;;2.83;83.40
55590;BME280;41452;42.780;23.116;2023-03-15T01:54:02;93299.72;;;2.74;83.63
55590;BME280;41452;42.780;23.116;2023-03-15T01:56:30;93273.25;;;2.65;83.03
55590;BME280;41452;42.780;23.116;2023-03-15T01:58:58;93290.41;;;2.66;81.63
55590;BME280;41452;42.780;23.116;2023-03-15T02:01:26;93298.56;;;2.63;82.85
55590;BME280;41452;42.780;23.116;2023-03-15T02:03:55;93289.16;;;2.69;81.75
55590;BME280;41452;42.780;23.116;2023-03-15T02:06:22;93254.38;;;2.52;81.39
55590;BME280;41452;42.780;23.116;2023-03-15T02:08:55;93282.00;;;2.64;81.22
55590;BME280;41452;42.780;23.116;2023-03-15T02:11:25;93283.25;;;2.55;82.11
55590;BME280;41452;42.780;23.116;2023-03-15T02:13:51;93283.81;;;2.64;81.24
55590;BME280;41452;42.780;23.116;2023-03-15T02:16:19;93267.28;;;2.58;81.16
55590;BME280;41452;42.780;23.116;2023-03-15T02:18:46;93266.28;;;2.59;80.42
55590;BME280;41452;42.780;23.116;2023-03-15T02:23:59;93265.97;;;2.42;81.08
55590;BME280;41452;42.780;23.116;2023-03-15T02:26:34;93241.13;;;2.21;81.83
55590;BME280;41452;42.780;23.116;2023-03-15T02:29:03;93266.56;;;2.38;80.99
55590;BME280;41452;42.780;23.116;2023-03-15T02:31:28;93277.56;;;2.33;81.08
55590;BME280;41452;42.780;23.116;2023-03-15T02:34:02;93239.59;;;2.07;81.35
55590;BME280;41452;42.780;23.116;2023-03-15T02:36:29;93240.44;;;2.01;82.75
55590;BME280;41452;42.780;23.116;2023-03-15T02:38:56;93263.50;;;2.09;83.28
55590;BME280;41452;42.780;23.116;2023-03-15T02:41:52;93255.88;;;2.27;80.97
55590;BME280;41452;42.780;23.116;2023-03-15T02:44:24;93202.63;;;1.86;80.29
55590;BME280;41452;42.780;23.116;2023-03-15T02:46:52;93251.91;;;2.18;81.04
55590;BME280;41452;42.780;23.116;2023-03-15T02:49:22;93243.56;;;2.16;80.87
55590;BME280;41452;42.780;23.116;2023-03-15T02:51:49;93237.19;;;2.19;79.76
55590;BME280;41452;42.780;23.116;2023-03-15T02:54:15;93215.34;;;1.95;79.71
55590;BME280;41452;42.780;23.116;2023-03-15T02:56:40;93082.06;;;1.07;79.09
55590;BME280;41452;42.780;23.116;2023-03-15T02:59:06;93233.78;;;2.18;78.45
55590;BME280;41452;42.780;23.116;2023-03-15T03:01:31;93231.63;;;2.15;78.14
55590;BME280;41452;42.780;23.116;2023-03-15T03:03:57;93201.88;;;1.73;78.74
55590;BME280;41452;42.780;23.116;2023-03-15T03:06:22;93183.19;;;1.64;79.38
55590;BME280;41452;42.780;23.116;2023-03-15T03:08:48;93229.13;;;1.88;79.87
55590;BME280;41452;42.780;23.116;2023-03-15T03:11:14;93222.91;;;1.96;79.20
55590;BME280;41452;42.780;23.116;2023-03-15T03:13:40;93215.34;;;1.95;79.61
55590;BME280;41452;42.780;23.116;2023-03-15T03:16:06;93215.72;;;1.98;79.08
55590;BME280;41452;42.780;23.116;2023-03-15T03:18:31;93224.34;;;1.85;80.23
55590;BME280;41452;42.780;23.116;2023-03-15T03:21:00;93217.03;;;1.62;81.16
55590;BME280;41452;42.780;23.116;2023-03-15T03:23:27;93224.94;;;1.74;81.43
55590;BME280;41452;42.780;23.116;2023-03-15T03:25:53;93216.97;;;1.82;81.12
55590;BME280;41452;42.780;23.116;2023-03-15T03:28:24;93211.84;;;1.69;81.66
55590;BME280;41452;42.780;23.116;2023-03-15T03:30:50;93219.97;;;1.79;81.84
55590;BME280;41452;42.780;23.116;2023-03-15T03:33:16;93224.38;;;1.72;82.43
55590;BME280;41452;42.780;23.116;2023-03-15T03:35:41;93183.84;;;1.46;82.52
55590;BME280;41452;42.780;23.116;2023-03-15T03:38:10;93215.03;;;1.71;81.72
55590;BME280;41452;42.780;23.116;2023-03-15T03:40:37;93200.28;;;1.71;81.56
55590;BME280;41452;42.780;23.116;2023-03-15T03:43:02;93202.09;;;1.71;81.47
55590;BME280;41452;42.780;23.116;2023-03-15T03:45:28;93197.09;;;1.76;80.44
55590;BME280;41452;42.780;23.116;2023-03-15T03:47:53;93046.13;;;0.79;81.23
55590;BME280;41452;42.780;23.116;2023-03-15T03:50:18;93193.88;;;1.81;81.63
55590;BME280;41452;42.780;23.116;2023-03-15T03:52:44;93195.88;;;1.72;81.70
55590;BME280;41452;42.780;23.116;2023-03-15T03:55:10;93183.38;;;1.69;81.41
55590;BME280;41452;42.780;23.116;2023-03-15T03:57:40;93178.97;;;1.76;82.53
55590;BME280;41452;42.780;23.116;2023-03-15T04:00:11;93184.91;;;1.83;82.73
55590;BME280;41452;42.780;23.116;2023-03-15T04:02:38;93185.13;;;1.75;82.01
55590;BME280;41452;42.780;23.116;2023-03-15T04:05:03;93177.59;;;1.67;83.42
55590;BME280;41452;42.780;23.116;2023-03-15T04:07:29;93175.25;;;1.59;83.40
55590;BME280;41452;42.780;23.116;2023-03-15T04:09:54;93177.84;;;1.45;83.52
55590;BME280;41452;42.780;23.116;2023-03-15T04:12:20;93190.75;;;1.59;84.28
55590;BME280;41452;42.780;23.116;2023-03-15T04:14:45;93185.19;;;1.55;84.00
55590;BME280;41452;42.780;23.116;2023-03-15T04:17:10;93186.38;;;1.66;84.67
55590;BME280;41452;42.780;23.116;2023-03-15T04:19:36;93185.72;;;1.77;85.08
55590;BME280;41452;42.780;23.116;2023-03-15T04:22:02;93152.91;;;1.64;85.46
55590;BME280;41452;42.780;23.116;2023-03-15T04:24:34;93178.72;;;1.91;84.91
55590;BME280;41452;42.780;23.116;2023-03-15T04:27:00;93179.09;;;1.95;85.12
55590;BME280;41452;42.780;23.116;2023-03-15T04:29:26;93177.91;;;1.97;86.39
55590;BME280;41452;42.780;23.116;2023-03-15T04:31:51;93178.69;;;1.98;84.96
55590;BME280;41452;42.780;23.116;2023-03-15T04:34:16;93161.97;;;1.94;83.61
55590;BME280;41452;42.780;23.116;2023-03-15T04:36:42;93134.91;;;1.89;85.97
55590;BME280;41452;42.780;23.116;2023-03-15T04:39:07;93160.47;;;2.11;84.51
55590;BME280;41452;42.780;23.116;2023-03-15T04:41:34;93177.44;;;2.07;85.01
55590;BME280;41452;42.780;23.116;2023-03-15T04:44:01;93129.78;;;1.76;85.10
55590;BME280;41452;42.780;23.116;2023-03-15T04:46:31;93163.75;;;1.93;85.11
55590;BME280;41452;42.780;23.116;2023-03-15T04:48:57;93100.78;;;1.61;86.08
55590;BME280;41452;42.780;23.116;2023-03-15T04:51:23;93158.91;;;2.10;85.73
55590;BME280;41452;42.780;23.116;2023-03-15T04:53:48;93151.09;;;2.17;84.15
55590;BME280;41452;42.780;23.116;2023-03-15T04:56:14;93157.84;;;2.24;83.21
55590;BME280;41452;42.780;23.116;2023-03-15T04:58:39;93136.16;;;2.19;83.19
55590;BME280;41452;42.780;23.116;2023-03-15T05:01:05;93096.97;;;2.08;82.69
55590;BME280;41452;42.780;23.116;2023-03-15T05:03:30;93110.88;;;2.14;82.64
55590;BME280;41452;42.780;23.116;2023-03-15T05:05:56;93149.75;;;2.46;83.34
55590;BME280;41452;42.780;23.116;2023-03-15T05:08:21;93150.72;;;2.45;83.35
55590;BME280;41452;42.780;23.116;2023-03-15T05:10:46;93150.16;;;2.43;83.56
55590;BME280;41452;42.780;23.116;2023-03-15T05:13:12;93150.66;;;2.26;85.22
55590;BME280;41452;42.780;23.116;2023-03-15T05:15:37;93164.91;;;2.42;84.50
55590;BME280;41452;42.780;23.116;2023-03-15T05:18:03;93160.69;;;2.48;83.82
55590;BME280;41452;42.780;23.116;2023-03-15T05:20:28;93155.88;;;2.52;84.10
55590;BME280;41452;42.780;23.116;2023-03-15T05:22:54;93166.88;;;2.47;83.89
55590;BME280;41452;42.780;23.116;2023-03-15T05:25:19;93161.94;;;2.39;84.98
55590;BME280;41452;42.780;23.116;2023-03-15T05:27:45;93114.44;;;2.13;85.50
55590;BME280;41452;42.780;23.116;2023-03-15T05:30:11;93153.56;;;2.43;84.91
55590;BME280;41452;42.780;23.116;2023-03-15T05:32:36;93158.84;;;2.55;83.24
55590;BME280;41452;42.780;23.116;2023-03-15T05:35:05;93165.03;;;2.54;83.73
55590;BME280;41452;42.780;23.116;2023-03-15T05:37:31;93160.59;;;2.61;85.13
55590;BME280;41452;42.780;23.116;2023-03-15T05:39:58;93151.78;;;2.69;84.99
55590;BME280;41452;42.780;23.116;2023-03-15T05:42:23;93147.94;;;2.72;83.50
55590;BME280;41452;42.780;23.116;2023-03-15T05:44:52;93108.66;;;2.50;82.98
55590;BME280;41452;42.780;23.116;2023-03-15T05:47:18;93148.13;;;2.77;84.13
55590;BME280;41452;42.780;23.116;2023-03-15T05:49:43;93149.88;;;2.83;83.49
55590;BME280;41452;42.780;23.116;2023-03-15T05:52:09;93130.72;;;2.84;85.09
55590;BME280;41452;42.780;23.116;2023-03-15T05:54:34;93092.94;;;2.70;82.39
55590;BME280;41452;42.780;23.116;2023-03-15T05:57:00;93138.56;;;3.02;81.79
55590;BME280;41452;42.780;23.116;2023-03-15T05:59:25;93144.31;;;3.04;80.28
55590;BME280;41452;42.780;23.116;2023-03-15T06:01:51;93140.84;;;3.11;80.77
55590;BME280;41452;42.780;23.116;2023-03-15T06:04:16;93136.34;;;3.24;81.43
55590;BME280;41452;42.780;23.116;2023-03-15T06:06:41;93136.66;;;3.35;77.05
55590;BME280;41452;42.780;23.116;2023-03-15T06:09:07;93146.50;;;3.45;76.66
55590;BME280;41452;42.780;23.116;2023-03-15T06:11:32;93142.47;;;3.30;72.49
55590;BME280;41452;42.780;23.116;2023-03-15T06:13:58;93108.31;;;3.15;72.24
55590;BME280;41452;42.780;23.116;2023-03-15T06:16:23;93142.50;;;3.49;72.86
55590;BME280;41452;42.780;23.116;2023-03-15T06:18:49;93160.38;;;3.57;72.22
55590;BME280;41452;42.780;23.116;2023-03-15T06:21:15;93139.34;;;3.47;71.37
55590;BME280;41452;42.780;23.116;2023-03-15T06:23:40;93150.72;;;3.64;69.60
55590;BME280;41452;42.780;23.116;2023-03-15T06:26:06;93150.50;;;3.66;71.87
55590;BME280;41452;42.780;23.116;2023-03-15T06:28:31;93154.63;;;3.73;69.88
55590;BME280;41452;42.780;23.116;2023-03-15T06:30:56;93096.13;;;3.34;68.53
55590;BME280;41452;42.780;23.116;2023-03-15T06:33:22;93159.09;;;3.85;66.83
55590;BME280;41452;42.780;23.116;2023-03-15T06:35:48;93131.16;;;3.80;68.40
55590;BME280;41452;42.780;23.116;2023-03-15T06:38:14;93135.28;;;3.88;68.07
55590;BME280;41452;42.780;23.116;2023-03-15T06:40:39;93163.69;;;4.01;67.46
55590;BME280;41452;42.780;23.116;2023-03-15T06:43:04;93156.69;;;4.02;67.48
55590;BME280;41452;42.780;23.116;2023-03-15T06:45:31;93152.22;;;4.09;65.10
55590;BME280;41452;42.780;23.116;2023-03-15T06:47:57;93147.94;;;4.14;65.71
55590;BME280;41452;42.780;23.116;2023-03-15T06:50:22;93146.56;;;4.12;67.66
55590;BME280;41452;42.780;23.116;2023-03-15T06:52:48;93149.28;;;4.17;65.37
55590;BME280;41452;42.780;23.116;2023-03-15T06:55:13;93101.38;;;3.83;67.11
55590;BME280;41452;42.780;23.116;2023-03-15T06:57:45;93158.47;;;4.19;65.30
55590;BME280;41452;42.780;23.116;2023-03-15T07:00:11;93153.41;;;4.25;66.46
55590;BME280;41452;42.780;23.116;2023-03-15T07:02:36;93164.81;;;4.54;64.36
55590;BME280;41452;42.780;23.116;2023-03-15T07:05:03;93159.16;;;4.57;63.36
55590;BME280;41452;42.780;23.116;2023-03-15T07:07:29;93158.75;;;4.72;65.77
55590;BME280;41452;42.780;23.116;2023-03-15T07:09:54;93124.88;;;4.48;64.38
55590;BME280;41452;42.780;23.116;2023-03-15T07:12:20;93150.50;;;4.75;65.30
55590;BME280;41452;42.780;23.116;2023-03-15T07:14:45;93144.19;;;4.94;63.49
55590;BME280;41452;42.780;23.116;2023-03-15T07:17:11;93136.63;;;5.05;62.34
55590;BME280;41452;42.780;23.116;2023-03-15T07:19:36;93138.31;;;5.11;62.11
55590;BME280;41452;42.780;23.116;2023-03-15T07:22:02;93141.59;;;5.18;62.45
55590;BME280;41452;42.780;23.116;2023-03-15T07:24:28;93140.25;;;5.27;63.00
55590;BME280;41452;42.780;23.116;2023-03-15T07:26:53;93136.63;;;5.28;61.75
55590;BME280;41452;42.780;23.116;2023-03-15T07:29:21;93143.97;;;5.08;60.95
55590;BME280;41452;42.780;23.116;2023-03-15T07:31:47;93149.84;;;5.15;62.17
55590;BME280;41452;42.780;23.116;2023-03-15T07:34:12;93145.56;;;5.32;64.31
55590;BME280;41452;42.780;23.116;2023-03-15T07:36:38;93139.47;;;5.39;61.39
55590;BME280;41452;42.780;23.116;2023-03-15T07:39:03;93140.47;;;5.49;62.41
55590;BME280;41452;42.780;23.116;2023-03-15T07:41:29;93128.69;;;5.47;60.96
55590;BME280;41452;42.780;23.116;2023-03-15T07:43:55;93088.78;;;5.29;61.53
55590;BME280;41452;42.780;23.116;2023-03-15T07:46:20;93145.09;;;5.83;61.99
55590;BME280;41452;42.780;23.116;2023-03-15T07:48:46;93092.09;;;5.65;59.58
55590;BME280;41452;42.780;23.116;2023-03-15T07:51:11;93136.13;;;6.02;59.04
55590;BME280;41452;42.780;23.116;2023-03-15T07:53:37;93137.13;;;6.01;58.07
55590;BME280;41452;42.780;23.116;2023-03-15T07:56:03;93129.84;;;5.51;61.18
55590;BME280;41452;42.780;23.116;2023-03-15T07:58:28;93128.63;;;5.94;60.67
55590;BME280;41452;42.780;23.116;2023-03-15T08:00:56;93132.75;;;6.19;61.38
55590;BME280;41452;42.780;23.116;2023-03-15T08:03:25;93128.84;;;6.33;59.84
55590;BME280;41452;42.780;23.116;2023-03-15T08:05:51;93108.69;;;6.28;59.86
55590;BME280;41452;42.780;23.116;2023-03-15T08:08:16;93107.31;;;6.38;59.75
55590;BME280;41452;42.780;23.116;2023-03-15T08:10:43;93100.59;;;6.42;61.04
55590;BME280;41452;42.780;23.116;2023-03-15T08:13:09;93113.53;;;6.54;60.09
55590;BME280;41452;42.780;23.116;2023-03-15T08:15:35;93104.97;;;6.70;61.66
55590;BME280;41452;42.780;23.116;2023-03-15T08:18:01;93101.72;;;6.63;59.08
55590;BME280;41452;42.780;23.116;2023-03-15T08:20:27;93094.53;;;6.70;58.49
55590;BME280;41452;42.780;23.116;2023-03-15T08:22:52;93103.13;;;6.71;59.47
55590;BME280;41452;42.780;23.116;2023-03-15T08:25:20;93107.88;;;6.57;60.04
55590;BME280;41452;42.780;23.116;2023-03-15T08:27:48;93108.22;;;6.77;59.65
55590;BME280;41452;42.780;23.116;2023-03-15T08:30:14;93101.94;;;6.78;59.66
55590;BME280;41452;42.780;23.116;2023-03-15T08:32:42;93096.44;;;6.92;59.64
55590;BME280;41452;42.780;23.116;2023-03-15T08:35:09;93109.31;;;7.15;59.36
55590;BME280;41452;42.780;23.116;2023-03-15T08:37:36;93104.56;;;7.12;57.53
55590;BME280;41452;42.780;23.116;2023-03-15T08:40:02;93106.44;;;7.34;57.05
55590;BME280;41452;42.780;23.116;2023-03-15T08:42:34;93099.22;;;7.41;58.78
55590;BME280;41452;42.780;23.116;2023-03-15T08:45:00;93096.72;;;7.51;57.41
55590;BME280;41452;42.780;23.116;2023-03-15T08:47:26;93094.63;;;7.48;57.80
55590;BME280;41452;42.780;23.116;2023-03-15T08:49:52;93067.88;;;7.41;58.43
55590;BME280;41452;42.780;23.116;2023-03-15T08:52:20;93026.03;;;7.36;59.49
55590;BME280;41452;42.780;23.116;2023-03-15T08:54:47;93082.00;;;7.84;56.37
55590;BME280;41452;42.780;23.116;2023-03-15T08:57:13;93086.84;;;7.97;56.26
55590;BME280;41452;42.780;23.116;2023-03-15T08:59:39;93079.22;;;8.18;57.95
55590;BME280;41452;42.780;23.116;2023-03-15T09:02:05;93081.31;;;8.16;56.82
55590;BME280;41452;42.780;23.116;2023-03-15T09:04:32;93050.56;;;7.79;56.87
55590;BME280;41452;42.780;23.116;2023-03-15T09:06:57;93081.78;;;8.13;56.39
55590;BME280;41452;42.780;23.116;2023-03-15T09:09:22;93081.34;;;8.21;55.79
55590;BME280;41452;42.780;23.116;2023-03-15T09:11:48;93091.91;;;8.31;55.98
55590;BME280;41452;42.780;23.116;2023-03-15T09:14:14;93086.84;;;8.47;56.07
55590;BME280;41452;42.780;23.116;2023-03-15T09:16:39;93071.38;;;8.18;55.58
55590;BME280;41452;42.780;23.116;2023-03-15T09:19:04;93080.72;;;8.09;55.86
55590;BME280;41452;42.780;23.116;2023-03-15T09:21:30;93080.72;;;8.09;56.38
55590;BME280;41452;42.780;23.116;2023-03-15T09:23:55;93076.78;;;8.33;55.74
55590;BME280;41452;42.780;23.116;2023-03-15T09:26:21;93070.97;;;8.04;56.50
55590;BME280;41452;42.780;23.116;2023-03-15T09:28:47;93055.25;;;8.26;58.63
55590;BME280;41452;42.780;23.116;2023-03-15T09:31:12;93065.25;;;8.34;56.72
55590;BME280;41452;42.780;23.116;2023-03-15T09:33:38;93066.72;;;8.47;58.29
55590;BME280;41452;42.780;23.116;2023-03-15T09:36:03;92995.00;;;8.16;58.21
55590;BME280;41452;42.780;23.116;2023-03-15T09:38:29;93053.72;;;8.57;56.86
55590;BME280;41452;42.780;23.116;2023-03-15T09:40:57;93061.00;;;8.50;56.89
55590;BME280;41452;42.780;23.116;2023-03-15T09:46:41;92998.63;;;8.74;57.32
55590;BME280;41452;42.780;23.116;2023-03-15T09:49:13;93053.38;;;9.13;59.93
55590;BME280;41452;42.780;23.116;2023-03-15T09:51:48;93044.47;;;9.20;60.39
55590;BME280;41452;42.780;23.116;2023-03-15T09:54:38;93029.41;;;9.42;57.95
55590;BME280;41452;42.780;23.116;2023-03-15T09:57:13;93045.66;;;9.44;56.89
55590;BME280;41452;42.780;23.116;2023-03-15T09:59:42;93046.19;;;9.46;56.87
55590;BME280;41452;42.780;23.116;2023-03-15T10:02:28;93049.41;;;9.59;59.02
55590;BME280;41452;42.780;23.116;2023-03-15T10:05:00;93045.00;;;9.69;58.40
55590;BME280;41452;42.780;23.116;2023-03-15T10:07:28;93042.41;;;9.75;58.92
55590;BME280;41452;42.780;23.116;2023-03-15T10:09:54;93053.41;;;9.77;57.42
55590;BME280;41452;42.780;23.116;2023-03-15T10:12:29;93046.38;;;9.87;59.13
55590;BME280;41452;42.780;23.116;2023-03-15T10:20:12;93051.97;;;10.12;58.50
55590;BME280;41452;42.780;23.116;2023-03-15T10:22:52;93044.38;;;10.25;56.06
55590;BME280;41452;42.780;23.116;2023-03-15T10:25:28;93014.44;;;10.01;58.07
55590;BME280;41452;42.780;23.116;2023-03-15T10:30:32;93043.59;;;10.25;56.43
55590;BME280;41452;42.780;23.116;2023-03-15T10:35:52;93043.38;;;10.37;56.87
55590;BME280;41452;42.780;23.116;2023-03-15T10:38:22;93041.28;;;10.39;57.89
55590;BME280;41452;42.780;23.116;2023-03-15T10:40:56;93031.84;;;10.43;57.33
55590;BME280;41452;42.780;23.116;2023-03-15T10:46:01;93045.22;;;10.41;57.77
55590;BME280;41452;42.780;23.116;2023-03-15T10:48:29;93027.84;;;10.20;58.14
55590;BME280;41452;42.780;23.116;2023-03-15T10:50:55;93054.38;;;10.34;58.98
55590;BME280;41452;42.780;23.116;2023-03-15T10:53:21;93010.00;;;10.12;59.26
55590;BME280;41452;42.780;23.116;2023-03-15T10:55:57;93006.28;;;9.97;59.61
55590;BME280;41452;42.780;23.116;2023-03-15T10:58:28;93035.19;;;10.23;59.28
55590;BME280;41452;42.780;23.116;2023-03-15T11:01:07;93023.88;;;10.07;58.30
55590;BME280;41452;42.780;23.116;2023-03-15T11:03:35;93051.72;;;10.18;58.72
55590;BME280;41452;42.780;23.116;2023-03-15T11:06:18;92952.41;;;9.43;59.89
55590;BME280;41452;42.780;23.116;2023-03-15T11:08:44;93029.34;;;9.90;60.07
55590;BME280;41452;42.780;23.116;2023-03-15T11:11:09;93054.28;;;10.03;60.57
55590;BME280;41452;42.780;23.116;2023-03-15T11:13:37;93056.63;;;9.94;60.95
55590;BME280;41452;42.780;23.116;2023-03-15T11:19:01;93055.50;;;9.75;60.40
55590;BME280;41452;42.780;23.116;2023-03-15T11:21:32;93018.94;;;9.42;61.14
55590;BME280;41452;42.780;23.116;2023-03-15T11:24:00;93016.88;;;9.49;61.03
55590;BME280;41452;42.780;23.116;2023-03-15T11:26:30;93042.88;;;9.61;61.58
55590;BME280;41452;42.780;23.116;2023-03-15T11:29:21;93032.06;;;9.47;61.79
55590;BME280;41452;42.780;23.116;2023-03-15T11:31:44;92995.03;;;9.28;62.42
55590;BME280;41452;42.780;23.116;2023-03-15T11:34:25;93039.69;;;9.54;63.94
55590;BME280;41452;42.780;23.116;2023-03-15T11:36:56;93034.16;;;9.45;64.51
55590;BME280;41452;42.780;23.116;2023-03-15T11:42:13;93066.16;;;9.52;69.94
55590;BME280;41452;42.780;23.116;2023-03-15T11:44:44;93055.06;;;9.35;70.29
55590;BME280;41452;42.780;23.116;2023-03-15T11:49:58;93044.13;;;9.01;73.89
55590;BME280;41452;42.780;23.116;2023-03-15T11:52:25;93047.44;;;8.91;75.18
55590;BME280;41452;42.780;23.116;2023-03-15T11:54:56;93039.44;;;8.70;77.71
55590;BME280;41452;42.780;23.116;2023-03-15T11:59:56;93046.03;;;8.78;78.50
55590;BME280;41452;42.780;23.116;2023-03-15T12:04:54;93039.00;;;8.84;77.46
55590;BME280;41452;42.780;23.116;2023-03-15T12:09:52;93026.72;;;8.84;74.68
55590;BME280;41452;42.780;23.116;2023-03-15T12:31:01;93024.16;;;8.57;71.54
55590;BME280;41452;42.780;23.116;2023-03-15T12:33:29;93015.00;;;8.54;71.78
55590;BME280;41452;42.780;23.116;2023-03-15T12:36:10;93022.06;;;8.59;72.74
55590;BME280;41452;42.780;23.116;2023-03-15T12:38:54;92976.78;;;8.26;72.29
55590;BME280;41452;42.780;23.116;2023-03-15T12:41:40;93013.19;;;8.60;73.24
55590;BME280;41452;42.780;23.116;2023-03-15T12:57:24;92983.34;;;8.61;77.71
55590;BME280;41452;42.780;23.116;2023-03-15T12:59:57;92993.25;;;8.54;79.42
55590;BME280;41452;42.780;23.116;2023-03-15T13:02:27;92993.25;;;8.54;81.41
55590;BME280;41452;42.780;23.116;2023-03-15T13:05:09;92991.44;;;8.54;84.72
55590;BME280;41452;42.780;23.116;2023-03-15T13:10:44;92994.16;;;8.37;85.31
55590;BME280;41452;42.780;23.116;2023-03-15T13:18:57;92990.03;;;8.14;82.97
55590;BME280;41452;42.780;23.116;2023-03-15T13:23:56;92983.16;;;8.08;83.28
55590;BME280;41452;42.780;23.116;2023-03-15T13:26:50;92982.13;;;8.09;82.14
55590;BME280;41452;42.780;23.116;2023-03-15T13:29:23;92979.47;;;8.04;80.18
55590;BME280;41452;42.780;23.116;2023-03-15T13:32:16;92973.44;;;8.04;77.55
55590;BME280;41452;42.780;23.116;2023-03-15T13:34:46;92986.00;;;8.02;76.66
55590;BME280;41452;42.780;23.116;2023-03-15T13:37:19;92935.47;;;7.69;76.94
55590;BME280;41452;42.780;23.116;2023-03-15T13:40:10;92986.38;;;7.88;76.00
55590;BME280;41452;42.780;23.116;2023-03-15T13:42:39;92917.91;;;7.37;75.65
55590;BME280;41452;42.780;23.116;2023-03-15T13:47:32;92992.13;;;7.63;76.87
55590;BME280;41452;42.780;23.116;2023-03-15T13:49:58;93006.03;;;7.69;77.36
55590;BME280;41452;42.780;23.116;2023-03-15T13:52:23;93007.63;;;7.70;76.77
55590;BME280;41452;42.780;23.116;2023-03-15T13:54:51;92964.97;;;7.42;79.54
55590;BME280;41452;42.780;23.116;2023-03-15T13:57:18;92994.50;;;7.65;78.42
55590;BME280;41452;42.780;23.116;2023-03-15T14:02:36;92998.06;;;7.58;85.54
55590;BME280;41452;42.780;23.116;2023-03-15T14:05:28;92965.28;;;7.23;83.48
55590;BME280;41452;42.780;23.116;2023-03-15T14:07:58;93004.22;;;7.47;82.97
55590;BME280;41452;42.780;23.116;2023-03-15T14:10:38;93006.28;;;7.45;82.29
55590;BME280;41452;42.780;23.116;2023-03-15T14:13:27;93002.59;;;7.41;82.16
55590;BME280;41452;42.780;23.116;2023-03-15T14:15:58;93006.69;;;7.37;81.33
55590;BME280;41452;42.780;23.116;2023-03-15T14:18:29;92998.31;;;7.35;82.86
55590;BME280;41452;42.780;23.116;2023-03-15T14:23:25;93003.41;;;7.24;85.85
55590;BME280;41452;42.780;23.116;2023-03-15T14:26:00;93010.88;;;7.16;88.07
55590;BME280;41452;42.780;23.116;2023-03-15T14:28:30;93011.06;;;7.09;89.21
55590;BME280;41452;42.780;23.116;2023-03-15T14:30:57;93013.59;;;7.04;92.17
55590;BME280;41452;42.780;23.116;2023-03-15T14:33:40;93019.78;;;6.98;95.16